Time;durP1;ratioP1;P1;durP2;ratioP2;P2;SDS_P1;SDS_P2;PMS_P1;PMS_P2;Temp;Humidity;BMP_temperature;BMP_pressure;BME280_temperature;BME280_humidity;BME280_pressure;Samples;Min_cycle;Max_cycle;Signal;HPM_P1;HPM_P2
2022/10/11 00:01:01;;;;;;;2.63;0.80;;;11.30;99.90;;;11.34;100.00;101788.88;5227409;28;20554;-71
2022/10/11 00:03:34;;;;;;;2.13;0.90;;;11.20;99.90;;;11.30;100.00;101797.41;5227472;28;20044;-71
2022/10/11 00:06:07;;;;;;;2.72;1.10;;;11.20;99.90;;;11.26;100.00;101795.47;5227451;28;20490;-71
2022/10/11 00:08:40;;;;;;;2.25;0.73;;;11.10;99.90;;;11.22;100.00;101793.56;5226903;28;20052;-71
2022/10/11 00:11:12;;;;;;;2.05;1.25;;;11.10;99.90;;;11.20;100.00;101799.50;5227596;28;20456;-70
2022/10/11 00:13:44;;;;;;;4.10;1.00;;;11.10;99.90;;;11.16;100.00;101808.91;5226969;28;20048;-70
2022/10/11 00:16:17;;;;;;;5.35;1.10;;;11.00;99.90;;;11.10;100.00;101804.28;5227406;28;20041;-71
2022/10/11 00:18:49;;;;;;;3.03;1.05;;;11.00;99.90;;;11.06;100.00;101801.44;5227037;28;20041;-71
2022/10/11 00:21:22;;;;;;;2.67;0.95;;;11.00;99.90;;;11.02;100.00;101804.72;5227362;28;20045;-71
2022/10/11 00:23:54;;;;;;;3.10;0.93;;;10.90;99.90;;;10.99;100.00;101808.09;5227041;28;20045;-71
2022/10/11 00:26:27;;;;;;;2.90;1.25;;;10.90;99.90;;;10.97;100.00;101809.72;5227045;28;20402;-71
2022/10/11 00:28:59;;;;;;;2.35;0.80;;;10.80;99.90;;;10.95;100.00;101811.34;5225498;28;20064;-70
2022/10/11 00:31:32;;;;;;;2.03;0.85;;;10.80;99.90;;;10.92;100.00;101815.53;5227027;28;20060;-71
2022/10/11 00:34:05;;;;;;;3.38;0.93;;;10.80;99.90;;;10.87;100.00;101810.09;5226859;28;20072;-71
2022/10/11 00:36:37;;;;;;;2.30;0.90;;;10.80;99.90;;;10.81;100.00;101817.59;5226711;28;20142;-71
2022/10/11 00:39:09;;;;;;;4.93;1.20;;;10.70;99.90;;;10.77;100.00;101813.06;5227224;28;20421;-71
2022/10/11 00:41:42;;;;;;;3.72;0.90;;;10.70;99.90;;;10.71;100.00;101816.25;5228543;28;20045;-72
2022/10/11 00:44:19;;;;;;;2.03;1.05;;;10.60;99.90;;;10.70;100.00;101818.81;5226677;28;20506;-71
2022/10/11 00:46:58;;;;;;;2.58;1.00;;;10.60;99.90;;;10.66;100.00;101816.84;5229696;28;20037;-72
2022/10/11 00:49:35;;;;;;;2.58;1.10;;;10.60;99.90;;;10.62;100.00;101817.50;5225994;28;20130;-71
2022/10/11 00:52:15;;;;;;;3.20;0.82;;;10.50;99.90;;;10.59;100.00;101824.34;5226823;28;20059;-71
2022/10/11 00:54:49;;;;;;;4.00;1.00;;;10.50;99.90;;;10.56;100.00;101812.84;5226853;28;20052;-71
2022/10/11 00:57:25;;;;;;;3.50;1.00;;;10.50;99.90;;;10.52;100.00;101816.16;5226721;28;20418;-71
2022/10/11 00:59:58;;;;;;;3.10;0.88;;;10.40;99.90;;;10.47;100.00;101813.28;5226791;28;20060;-72
2022/10/11 01:02:32;;;;;;;2.95;1.10;;;10.40;99.90;;;10.43;100.00;101811.38;5227020;28;20047;-71
2022/10/11 01:05:06;;;;;;;3.67;1.55;;;10.40;99.90;;;10.41;100.00;101812.09;5226580;28;20468;-71
2022/10/11 01:07:39;;;;;;;3.15;1.48;;;10.30;99.90;;;10.37;100.00;101815.34;5226433;28;20048;-71
2022/10/11 01:10:12;;;;;;;3.53;0.98;;;10.30;99.90;;;10.34;100.00;101816.09;5227158;28;20036;-71
2022/10/11 01:13:06;;;;;;;2.13;1.00;;;10.20;99.90;;;10.30;100.00;101811.50;5226969;28;20037;-71
2022/10/11 01:15:45;;;;;;;3.03;1.30;;;10.20;99.90;;;10.27;100.00;101813.97;5226748;28;20404;-71
2022/10/11 01:18:28;;;;;;;2.47;1.00;;;10.20;99.90;;;10.26;100.00;101814.78;5226808;28;20144;-71
2022/10/11 01:21:08;;;;;;;4.03;1.30;;;10.20;99.90;;;10.22;100.00;101821.50;5226865;28;20052;-71
2022/10/11 01:24:20;;;;;;;2.00;0.75;;;10.20;99.90;;;10.19;100.00;101826.56;5227293;28;20048;-71
2022/10/11 01:27:48;;;;;;;3.33;0.75;;;10.10;99.90;;;10.15;100.00;101823.72;5223502;28;20060;-71
2022/10/11 01:30:25;;;;;;;3.30;0.80;;;10.10;99.90;;;10.12;100.00;101827.06;5220568;28;20145;-71
2022/10/11 01:33:16;;;;;;;3.60;1.30;;;10.10;99.90;;;10.08;100.00;101825.09;5226426;28;20060;-73
2022/10/11 01:35:59;;;;;;;3.13;1.17;;;10.00;99.90;;;10.03;100.00;101830.06;5226583;28;20048;-73
2022/10/11 01:38:39;;;;;;;2.05;0.80;;;10.00;99.90;;;10.01;100.00;101836.91;5226727;28;20293;-70
2022/10/11 01:41:17;;;;;;;1.05;0.63;;;9.90;99.90;;;9.97;100.00;101827.13;5225158;28;20044;-71
2022/10/11 01:43:56;;;;;;;3.55;0.95;;;9.90;99.90;;;9.94;100.00;101826.97;5227019;28;20051;-71
2022/10/11 01:46:31;;;;;;;2.53;0.82;;;9.90;99.90;;;9.93;100.00;101827.78;5224578;28;20071;-71
2022/10/11 01:49:04;;;;;;;3.50;0.90;;;9.90;99.90;;;9.90;100.00;101839.75;5226486;28;20048;-71
2022/10/11 01:51:41;;;;;;;1.65;0.65;;;9.90;99.90;;;9.87;100.00;101835.28;5226137;28;20040;-71
2022/10/11 01:54:41;;;;;;;4.15;1.67;;;9.80;99.90;;;9.83;100.00;101846.34;5226948;28;20390;-71
2022/10/11 01:57:50;;;;;;;2.47;0.80;;;9.80;99.90;;;9.81;100.00;101847.06;5225981;28;20053;-71
2022/10/11 02:00:25;;;;;;;1.73;0.90;;;9.80;99.90;;;9.77;100.00;101843.38;5225397;28;20505;-70
2022/10/11 02:03:17;;;;;;;3.30;1.23;;;9.70;99.90;;;9.73;100.00;101841.44;5226006;28;20056;-71
2022/10/11 02:05:57;;;;;;;1.52;0.80;;;9.70;99.90;;;9.69;100.00;101834.28;5224834;28;20049;-71
2022/10/11 02:08:39;;;;;;;3.17;1.40;;;9.70;99.90;;;9.66;100.00;101841.94;5225301;28;20055;-71
2022/10/11 02:11:16;;;;;;;;;;;9.60;99.90;;;9.64;100.00;101838.31;5225381;28;20056;-71
2022/10/11 02:13:54;;;;;;;2.88;1.10;;;9.60;99.90;;;9.62;100.00;101838.25;5226085;28;20385;-71
2022/10/11 02:16:31;;;;;;;1.83;0.85;;;9.60;99.90;;;9.61;100.00;101838.16;5225653;28;20048;-71
2022/10/11 02:19:08;;;;;;;2.75;0.73;;;9.60;99.90;;;9.60;100.00;101836.38;5225358;28;20041;-72
2022/10/11 02:21:45;;;;;;;2.40;1.08;;;9.60;99.90;;;9.59;100.00;101839.81;5224607;28;20049;-71
2022/10/11 02:24:23;;;;;;;3.03;1.08;;;9.50;99.90;;;9.56;100.00;101837.00;5225885;28;20056;-71
2022/10/11 02:26:59;;;;;;;1.63;0.90;;;9.50;99.90;;;9.55;100.00;101841.31;5225932;28;20041;-71
2022/10/11 02:29:37;;;;;;;1.88;1.10;;;9.50;99.90;;;9.51;100.00;101845.44;5225277;28;20502;-70
2022/10/11 02:32:10;;;;;;;4.10;1.10;;;9.50;99.90;;;9.48;100.00;101842.69;5225640;28;20056;-71
2022/10/11 02:34:52;;;;;;;3.35;1.00;;;9.40;99.90;;;9.46;100.00;101843.44;5225873;28;20052;-71
2022/10/11 02:37:31;;;;;;;4.10;1.10;;;9.40;99.90;;;9.42;100.00;101847.56;5225462;28;20163;-71
2022/10/11 02:40:11;;;;;;;3.47;1.23;;;9.40;99.90;;;9.39;100.00;101847.41;5225147;28;20049;-69
2022/10/11 02:42:49;;;;;;;1.75;1.27;;;9.40;99.90;;;9.36;100.00;101847.22;5225149;28;20506;-70
2022/10/11 02:45:27;;;;;;;1.92;0.88;;;9.30;99.90;;;9.32;100.00;101855.63;5225342;28;20076;-70
2022/10/11 02:47:59;;;;;;;3.80;1.23;;;9.30;99.90;;;9.30;100.00;101857.28;5225464;28;20063;-70
2022/10/11 02:50:33;;;;;;;4.15;1.27;;;9.30;99.90;;;9.26;100.00;101855.31;5225265;28;20053;-70
2022/10/11 02:53:06;;;;;;;3.22;1.38;;;9.30;99.90;;;9.22;100.00;101858.53;5224283;28;20071;-71
2022/10/11 02:55:38;;;;;;;2.08;1.10;;;9.20;99.90;;;9.17;100.00;101858.28;5224137;28;20045;-70
2022/10/11 02:58:10;;;;;;;3.42;1.35;;;9.20;99.90;;;9.15;100.00;101856.41;5226930;28;20470;-69
2022/10/11 03:00:42;;;;;;;2.17;0.90;;;9.20;99.90;;;9.12;100.00;101869.22;5229683;28;20045;-70
2022/10/11 03:03:15;;;;;;;3.05;1.15;;;9.10;99.90;;;9.10;100.00;101863.94;5229998;28;20048;-70
2022/10/11 03:05:48;;;;;;;2.40;1.30;;;9.10;99.90;;;9.10;100.00;101873.44;5228537;28;20428;-70
2022/10/11 03:08:20;;;;;;;4.95;1.52;;;9.10;99.90;;;9.08;100.00;101877.69;5228488;28;20048;-70
2022/10/11 03:10:52;;;;;;;1.73;0.95;;;9.00;99.90;;;9.07;100.00;101874.19;5229334;28;20041;-70
2022/10/11 03:13:25;;;;;;;4.57;1.13;;;9.00;99.90;;;9.07;100.00;101878.50;5229524;28;20056;-70
2022/10/11 03:15:57;;;;;;;1.77;1.00;;;9.00;99.90;;;9.08;100.00;101881.16;5228211;28;20049;-70
2022/10/11 03:18:29;;;;;;;4.95;1.33;;;9.00;99.90;;;9.10;100.00;101878.66;5227688;28;20514;-71
2022/10/11 03:21:03;;;;;;;4.57;1.25;;;9.10;99.90;;;9.12;100.00;101879.63;5229093;28;20048;-70
2022/10/11 03:23:35;;;;;;;2.90;1.20;;;9.10;99.90;;;9.12;100.00;101882.22;5228931;28;20056;-70
2022/10/11 03:26:07;;;;;;;2.08;1.10;;;9.10;99.90;;;9.09;100.00;101882.97;5229380;28;20044;-70
2022/10/11 03:28:39;;;;;;;2.30;1.55;;;9.10;99.90;;;9.02;100.00;101887.72;5228644;28;20413;-70
2022/10/11 03:31:11;;;;;;;3.30;1.30;;;9.00;99.90;;;8.97;100.00;101887.44;5229106;28;20045;-70
2022/10/11 03:33:43;;;;;;;2.55;1.00;;;8.90;99.90;;;8.92;100.00;101889.75;5227983;28;20053;-70
2022/10/11 03:36:18;;;;;;;3.15;1.05;;;8.90;99.90;;;8.89;100.00;101893.91;5228064;28;20141;-69
2022/10/11 03:38:50;;;;;;;1.42;0.90;;;8.90;99.90;;;8.86;100.00;101899.81;5228519;28;20060;-70
2022/10/11 03:41:22;;;;;;;3.45;0.95;;;8.90;99.90;;;8.83;100.00;101899.63;5228892;28;20513;-70
2022/10/11 03:43:54;;;;;;;1.73;0.93;;;8.80;99.90;;;8.80;100.00;101907.28;5228936;28;20516;-69
2022/10/11 03:46:26;;;;;;;2.08;0.93;;;8.80;99.90;;;8.77;100.00;101904.47;5228821;28;20052;-70
2022/10/11 03:48:58;;;;;;;2.78;0.90;;;8.80;99.90;;;8.73;100.00;101907.69;5228836;28;20041;-70
2022/10/11 03:51:31;;;;;;;3.45;1.00;;;8.70;99.90;;;8.71;100.00;101906.69;5228915;28;20055;-70
2022/10/11 03:54:04;;;;;;;2.83;1.25;;;8.70;99.90;;;8.67;100.00;101902.13;5228834;28;20413;-73
2022/10/11 03:56:36;;;;;;;5.53;1.27;;;8.70;99.90;;;8.63;100.00;101911.44;5228298;28;20051;-70
2022/10/11 03:59:09;;;;;;;3.88;1.20;;;8.70;99.90;;;8.58;100.00;101906.78;5226818;28;20080;-70
2022/10/11 04:04:45;;;;;;;2.38;1.20;;;8.60;99.90;;;8.53;100.00;101913.38;5158608;28;20101;-66
2022/10/11 04:07:19;;;;;;;4.25;1.48;;;8.50;99.90;;;8.52;100.00;101916.78;5164633;28;20067;-65
2022/10/11 04:09:52;;;;;;;3.35;1.45;;;8.50;99.90;;;8.52;100.00;101927.19;5164176;28;20426;-66
2022/10/11 04:12:24;;;;;;;3.22;1.10;;;8.50;99.90;;;8.53;100.00;101919.47;5164766;28;20097;-66
2022/10/11 04:14:57;;;;;;;2.22;1.30;;;8.50;99.90;;;8.56;100.00;101924.00;5165134;28;20050;-66
2022/10/11 04:17:29;;;;;;;2.50;1.20;;;8.50;99.90;;;8.55;100.00;101922.19;5148591;28;20054;-66
2022/10/11 04:20:02;;;;;;;2.58;1.70;;;8.60;99.90;;;8.56;100.00;101927.47;5164673;28;20414;-66
2022/10/11 04:22:37;;;;;;;2.25;1.20;;;8.60;99.90;;;8.56;100.00;101929.19;5148405;28;20061;-65
2022/10/11 04:25:10;;;;;;;2.88;1.20;;;8.60;99.90;;;8.57;100.00;101936.19;5164791;28;20547;-66
2022/10/11 04:27:42;;;;;;;3.80;1.02;;;8.60;99.90;;;8.60;100.00;101931.16;5166109;28;20043;-65
2022/10/11 04:30:15;;;;;;;2.53;1.10;;;8.60;99.90;;;8.64;100.00;101928.84;5165477;28;20497;-67
2022/10/11 04:32:48;;;;;;;3.00;1.00;;;8.60;99.90;;;8.69;100.00;101926.53;5166017;28;20060;-66
2022/10/11 04:35:20;;;;;;;2.58;1.00;;;8.70;99.90;;;8.74;100.00;101934.56;5148320;28;20042;-65
2022/10/11 04:37:54;;;;;;;2.63;1.00;;;8.70;99.90;;;8.76;100.00;101941.69;5165823;28;20049;-65
2022/10/11 04:40:26;;;;;;;3.20;1.20;;;8.80;99.90;;;8.79;100.00;101933.16;5164282;28;20050;-65
2022/10/11 04:42:59;;;;;;;2.35;1.13;;;8.80;99.90;;;8.84;100.00;101947.34;5165887;28;20498;-69
2022/10/11 04:45:31;;;;;;;3.65;1.40;;;8.80;99.90;;;8.87;100.00;101938.03;5165424;28;20039;-66
2022/10/11 04:48:04;;;;;;;2.08;1.08;;;8.90;99.90;;;8.91;100.00;101940.00;5180517;28;20050;-66
2022/10/11 04:50:36;;;;;;;3.92;1.75;;;8.90;99.90;;;8.94;100.00;101945.38;5164155;28;20057;-66
2022/10/11 04:53:14;;;;;;;5.32;1.67;;;8.90;99.90;;;8.97;100.00;101945.56;5164375;28;20054;-67
2022/10/11 04:55:59;;;;;;;3.92;1.20;;;9.00;99.90;;;9.00;100.00;101950.06;5165230;28;20042;-65
2022/10/11 04:58:33;;;;;;;2.28;1.05;;;9.00;99.90;;;9.03;100.00;101944.13;5164890;28;20058;-66
2022/10/11 05:01:06;;;;;;;2.17;1.35;;;9.00;99.90;;;9.06;100.00;101942.59;5165476;28;20050;-66
2022/10/11 05:03:38;;;;;;;3.28;1.38;;;9.10;99.90;;;9.10;100.00;101941.09;5180214;28;20046;-66
2022/10/11 05:06:10;;;;;;;3.88;1.20;;;9.10;99.90;;;9.16;100.00;101941.44;5180320;28;20050;-66
2022/10/11 05:08:44;;;;;;;1.75;1.05;;;9.10;99.90;;;9.23;100.00;101954.00;5163524;28;20054;-66
2022/10/11 05:11:17;;;;;;;4.75;1.73;;;9.20;99.90;;;9.27;100.00;101955.09;5165412;28;20414;-66
2022/10/11 05:13:50;;;;;;;2.63;1.30;;;9.20;99.90;;;9.32;100.00;101958.84;5163779;28;20541;-66
2022/10/11 05:16:22;;;;;;;2.45;1.35;;;9.30;99.90;;;9.34;100.00;101963.34;5179853;28;20513;-66
2022/10/11 05:18:54;;;;;;;4.38;1.45;;;9.30;99.90;;;9.39;100.00;101969.72;5164321;28;20069;-66
2022/10/11 05:21:29;;;;;;;5.53;1.20;;;9.30;99.90;;;9.44;100.00;101965.66;5162938;28;20100;-66
2022/10/11 05:24:03;;;;;;;3.70;1.48;;;9.40;99.90;;;9.49;100.00;101972.03;5164979;28;20049;-66
2022/10/11 05:26:35;;;;;;;4.78;1.30;;;9.40;99.90;;;9.52;100.00;101974.81;5163808;28;20070;-66
2022/10/11 05:29:08;;;;;;;3.00;1.27;;;9.50;99.90;;;9.57;100.00;101971.56;5178977;28;20073;-66
2022/10/11 05:31:40;;;;;;;1.88;1.20;;;9.50;99.90;;;9.60;100.00;101979.56;5163215;28;20054;-66
2022/10/11 05:34:12;;;;;;;5.18;2.13;;;9.60;99.90;;;9.61;100.00;101981.34;5165128;28;20434;-66
2022/10/11 05:36:45;;;;;;;3.90;1.48;;;9.60;99.90;;;9.66;100.00;101977.31;5163315;28;20544;-66
2022/10/11 05:39:18;;;;;;;4.93;1.23;;;9.60;99.90;;;9.70;100.00;101981.88;5162745;28;20054;-65
2022/10/11 05:41:51;;;;;;;3.50;1.58;;;9.70;99.90;;;9.74;100.00;101991.66;5179300;28;20807;-65
2022/10/11 05:44:24;;;;;;;3.25;1.40;;;9.70;99.90;;;9.76;100.00;101992.63;5147223;28;20042;-66
2022/10/11 05:46:56;;;;;;;3.92;1.40;;;9.70;99.90;;;9.80;100.00;101989.41;5164096;28;20139;-65
2022/10/11 05:49:28;;;;;;;7.18;1.92;;;9.70;99.90;;;9.82;100.00;102000.81;5164265;28;20042;-66
2022/10/11 05:52:01;;;;;;;4.82;1.70;;;9.80;99.90;;;9.85;100.00;102000.09;5162819;28;20046;-66
2022/10/11 05:54:35;;;;;;;5.82;1.75;;;9.80;99.90;;;9.86;100.00;101997.56;5163722;28;20049;-66
2022/10/11 05:57:07;;;;;;;8.00;2.20;;;9.80;99.90;;;9.88;100.00;102001.16;5178390;28;20414;-66
2022/10/11 05:59:39;;;;;;;8.07;2.80;;;9.80;99.90;;;9.90;100.00;102002.13;5178417;28;20426;-66
2022/10/11 06:02:12;;;;;;;8.52;2.20;;;9.90;99.90;;;9.91;100.00;102006.56;5174209;28;20070;-65
2022/10/11 06:04:44;;;;;;;8.90;2.15;;;9.90;99.90;;;9.93;100.00;101994.50;5182557;28;20506;-67
2022/10/11 06:07:17;;;;;;;24.65;4.53;;;9.90;99.90;;;9.91;100.00;102000.41;5184116;28;20049;-68
2022/10/11 06:09:51;;;;;;;17.58;3.83;;;9.90;99.90;;;9.90;100.00;102004.72;5149859;28;20084;-67
2022/10/11 06:12:24;;;;;;;19.83;3.67;;;9.90;99.90;;;9.91;100.00;102009.16;5182827;28;20417;-67
2022/10/11 06:14:58;;;;;;;14.35;2.92;;;9.90;99.90;;;9.90;100.00;102012.53;5166367;28;20620;-67
2022/10/11 06:17:30;;;;;;;12.55;2.80;;;9.90;99.90;;;9.94;100.00;102016.25;5182564;28;20046;-68
2022/10/11 06:20:03;;;;;;;14.98;3.05;;;10.00;99.90;;;9.97;100.00;102017.28;5183618;28;20073;-68
2022/10/11 06:22:35;;;;;;;19.83;4.00;;;9.90;99.90;;;9.99;100.00;102014.78;5183695;28;20100;-68
2022/10/11 06:25:10;;;;;;;17.02;3.40;;;10.00;99.90;;;10.01;100.00;102018.38;5183571;28;20101;-67
2022/10/11 06:27:42;;;;;;;18.33;3.47;;;10.00;99.90;;;10.02;100.00;102015.84;5166275;28;20046;-67
2022/10/11 06:30:14;;;;;;;19.13;4.15;;;10.00;99.90;;;10.06;100.00;102023.03;5183456;28;20381;-68
2022/10/11 06:32:46;;;;;;;15.98;3.03;;;10.10;99.90;;;10.12;100.00;102029.41;5182207;28;20421;-68
2022/10/11 06:35:18;;;;;;;12.82;3.00;;;10.10;99.90;;;10.14;100.00;102025.16;5183935;28;20045;-68
2022/10/11 06:37:51;;;;;;;14.13;3.15;;;10.10;99.90;;;10.19;100.00;102026.34;5164068;28;20069;-68
2022/10/11 06:40:25;;;;;;;15.90;3.10;;;10.20;99.90;;;10.22;100.00;102044.72;5182998;28;20119;-68
2022/10/11 06:42:57;;;;;;;13.50;3.15;;;10.20;99.90;;;10.24;100.00;102043.16;5165807;28;20108;-68
2022/10/11 06:45:30;;;;;;;18.17;4.18;;;10.20;99.90;;;10.23;100.00;102036.13;5182950;28;20433;-68
2022/10/11 06:48:04;;;;;;;16.50;3.38;;;10.20;99.90;;;10.23;100.00;102046.56;5183631;28;20041;-68
2022/10/11 06:50:38;;;;;;;15.63;3.20;;;10.20;99.90;;;10.32;100.00;102053.19;5165262;28;20108;-70
2022/10/11 06:53:10;;;;;;;14.75;3.42;;;10.30;99.90;;;10.34;100.00;102053.28;5182191;28;20659;-69
2022/10/11 06:55:44;;;;;;;17.33;4.07;;;10.30;99.90;;;10.35;100.00;102056.78;5183397;28;20533;-69
2022/10/11 06:58:17;;;;;;;18.38;3.58;;;10.30;99.90;;;10.37;100.00;102057.75;5165930;28;20042;-69
2022/10/11 07:00:49;;;;;;;14.02;3.70;;;10.40;99.90;;;10.39;100.00;102062.25;5183094;28;20057;-71
2022/10/11 07:03:21;;;;;;;14.30;3.25;;;10.40;99.90;;;10.44;100.00;102059.91;5149488;28;20456;-70
2022/10/11 07:05:54;;;;;;;23.52;4.93;;;10.40;99.90;;;10.47;100.00;102068.78;5149754;28;20053;-69
2022/10/11 07:08:26;;;;;;;20.48;4.38;;;10.40;99.90;;;10.50;100.00;102070.69;5183084;28;20046;-69
2022/10/11 07:11:06;;;;;;;19.20;4.50;;;10.50;99.90;;;10.52;100.00;102072.53;5183250;28;20548;-70
2022/10/11 07:13:39;;;;;;;18.95;4.35;;;10.50;99.90;;;10.55;100.00;102077.91;5165513;28;20092;-69
2022/10/11 07:16:14;;;;;;;19.33;5.00;;;10.50;99.90;;;10.60;100.00;102083.38;5183141;28;20402;-70
2022/10/11 07:18:47;;;;;;;16.17;3.80;;;10.60;99.90;;;10.66;100.00;102082.84;5181488;28;20065;-69
2022/10/11 07:21:19;;;;;;;17.20;4.50;;;10.60;99.90;;;10.71;100.00;102079.66;5149438;28;20092;-70
2022/10/11 07:23:52;;;;;;;25.13;6.85;;;10.60;99.90;;;10.75;100.00;102084.22;5183088;28;20192;-69
2022/10/11 07:26:26;;;;;;;20.80;6.13;;;10.70;99.90;;;10.78;100.00;102086.13;5182088;28;20147;-68
2022/10/11 07:28:58;;;;;;;30.85;8.93;;;10.70;99.90;;;10.78;100.00;102088.72;5164608;28;20038;-72
2022/10/11 07:31:31;;;;;;;29.75;8.70;;;10.70;99.90;;;10.72;100.00;102091.91;5181960;28;20065;-69
2022/10/11 07:34:03;;;;;;;26.63;8.50;;;10.80;99.90;;;10.83;100.00;102100.31;5166199;28;20049;-69
2022/10/11 07:36:36;;;;;;;28.17;8.02;;;10.80;99.90;;;10.92;100.00;102097.28;5165341;28;20061;-70
2022/10/11 07:39:09;;;;;;;26.23;7.88;;;10.90;99.90;;;10.99;100.00;102102.91;5176408;28;20049;-70
2022/10/11 07:41:43;;;;;;;23.73;7.35;;;10.90;99.90;;;11.05;100.00;102099.75;5168332;28;20058;-70
2022/10/11 07:44:15;;;;;;;19.70;6.10;;;11.00;99.90;;;11.08;100.00;102103.44;5161105;28;20104;-71
2022/10/11 07:46:48;;;;;;;23.55;7.30;;;11.00;99.90;;;11.13;100.00;102101.94;5167020;28;20046;-72
2022/10/11 07:49:20;;;;;;;24.27;8.25;;;11.00;99.90;;;11.15;100.00;102102.06;5177056;28;20502;-71
2022/10/11 07:51:52;;;;;;;25.60;6.60;;;11.10;99.90;;;11.20;100.00;102107.50;5169688;28;20054;-71
2022/10/11 07:54:25;;;;;;;27.58;7.70;;;11.10;99.90;;;11.24;100.00;102104.22;5169082;28;20057;-71
2022/10/11 07:56:59;;;;;;;20.73;7.03;;;11.10;99.90;;;11.30;100.00;102101.94;5185773;28;20627;-72
2022/10/11 07:59:32;;;;;;;18.80;6.03;;;11.20;99.90;;;11.36;100.00;102099.66;5185891;28;20049;-72
2022/10/11 08:02:06;;;;;;;24.67;8.23;;;11.30;99.90;;;11.39;100.00;102095.47;5185153;28;20536;-72
2022/10/11 08:04:39;;;;;;;26.02;8.80;;;11.30;99.90;;;11.42;100.00;102107.81;5185707;28;20072;-71
2022/10/11 08:07:11;;;;;;;22.50;7.95;;;11.30;99.90;;;11.46;100.00;102114.97;5185771;28;20038;-71
2022/10/11 08:09:43;;;;;;;19.13;6.70;;;11.40;99.90;;;11.53;100.00;102113.56;5167673;28;20054;-72
2022/10/11 08:12:17;;;;;;;26.33;8.77;;;11.40;99.90;;;11.53;100.00;102124.91;5137310;28;20690;-72
2022/10/11 08:14:50;;;;;;;25.17;7.93;;;11.50;99.90;;;11.59;100.00;102119.13;5169390;28;20539;-72
2022/10/11 08:17:22;;;;;;;26.73;7.88;;;11.50;99.90;;;11.61;100.00;102123.63;5169414;28;20046;-72
2022/10/11 08:19:56;;;;;;;27.08;8.35;;;11.50;99.90;;;11.64;100.00;102120.25;5185041;28;20120;-72
2022/10/11 08:22:29;;;;;;;22.33;7.40;;;11.50;99.90;;;11.68;100.00;102120.50;5185354;28;20068;-72
2022/10/11 08:25:01;;;;;;;26.85;8.30;;;11.60;99.90;;;11.72;100.00;102128.47;5186725;28;20073;-72
2022/10/11 08:27:35;;;;;;;26.55;7.80;;;11.60;99.90;;;11.80;100.00;102124.53;5186614;28;20163;-71
2022/10/11 08:30:11;;;;;;;24.58;7.63;;;11.70;99.90;;;11.91;100.00;102128.63;5184873;28;20053;-72
2022/10/11 08:32:43;;;;;;;25.90;8.07;;;11.80;99.90;;;12.01;100.00;102124.78;5186292;28;20413;-71
2022/10/11 08:35:16;;;;;;;29.15;8.60;;;11.80;99.90;;;12.07;100.00;102125.97;5186554;28;20041;-72
2022/10/11 08:37:49;;;;;;;21.15;7.72;;;11.90;99.90;;;12.26;100.00;102130.41;5152753;28;20454;-71
2022/10/11 08:40:22;;;;;;;28.83;8.68;;;12.10;99.90;;;12.40;100.00;102133.69;5186077;28;20046;-72
2022/10/11 08:43:03;;;;;;;24.80;7.55;;;12.20;99.90;;;12.52;100.00;102133.34;5185198;28;20092;-71
2022/10/11 08:45:43;;;;;;;18.73;6.95;;;12.30;99.90;;;12.89;100.00;102128.16;5185157;28;20540;-72
2022/10/11 08:48:22;;;;;;;19.80;6.70;;;12.60;99.90;;;13.33;100.00;102127.59;5184951;28;20038;-72
2022/10/11 08:50:54;;;;;;;22.10;7.63;;;12.90;99.90;;;13.58;100.00;102134.81;5184572;28;20153;-72
2022/10/11 08:53:42;;;;;;;26.83;8.75;;;13.20;99.90;;;13.55;100.00;102125.09;5184735;28;20054;-71
2022/10/11 08:56:16;;;;;;;;;;;13.30;99.90;;;13.43;100.00;102139.38;5153015;28;20050;-72
2022/10/11 08:58:56;;;;;;;21.00;6.53;;;13.20;99.90;;;13.25;100.00;102139.47;5185625;28;19926;-72
2022/10/11 09:01:29;;;;;;;24.92;8.13;;;13.10;99.90;;;13.10;100.00;102141.34;5186139;28;20551;-72
2022/10/11 09:04:02;;;;;;;21.63;8.52;;;13.00;99.90;;;12.99;100.00;102136.50;5185821;28;20502;-72
2022/10/11 09:06:47;;;;;;;23.58;7.20;;;12.90;99.90;;;12.91;100.00;102136.97;5185859;28;20061;-71
2022/10/11 09:09:42;;;;;;;24.17;7.55;;;12.80;99.90;;;12.91;100.00;102136.97;5185362;28;20050;-72
2022/10/11 09:12:24;;;;;;;16.70;6.95;;;12.80;99.90;;;12.97;100.00;102137.25;5184413;28;20441;-72
2022/10/11 09:15:20;;;;;;;26.00;8.50;;;12.80;99.90;;;12.95;100.00;102133.69;5168255;28;20425;-72
2022/10/11 09:18:16;;;;;;;20.95;6.80;;;12.80;99.90;;;12.98;100.00;102139.97;5185582;28;20049;-72
2022/10/11 09:21:00;;;;;;;28.83;9.02;;;12.80;99.90;;;12.75;100.00;102136.25;5166183;28;20460;-72
2022/10/11 09:23:51;;;;;;;25.02;7.32;;;12.70;99.90;;;12.70;100.00;102137.75;5168777;28;20042;-72
2022/10/11 09:26:29;;;;;;;25.00;8.20;;;12.60;99.90;;;12.77;100.00;102142.44;5168239;28;20417;-72
2022/10/11 09:29:11;;;;;;;27.52;9.45;;;12.60;99.90;;;12.72;100.00;102138.75;5167607;28;20034;-72
2022/10/11 09:31:48;;;;;;;21.10;7.88;;;12.60;99.90;;;12.69;100.00;102135.06;5185457;28;20057;-71
2022/10/11 09:34:25;;;;;;;22.15;7.28;;;12.60;99.90;;;12.61;100.00;102137.34;5167733;28;20133;-72
2022/10/11 09:37:07;;;;;;;20.17;6.47;;;12.60;99.90;;;12.63;100.00;102134.78;5185285;28;20052;-73
2022/10/11 09:39:47;;;;;;;14.68;5.90;;;12.50;99.90;;;12.79;100.00;102131.19;5183395;28;20417;-71
2022/10/11 09:42:20;;;;;;;30.00;9.05;;;12.60;99.90;;;12.90;100.00;102135.19;5167790;28;20129;-71
2022/10/11 09:44:53;;;;;;;18.48;6.45;;;12.70;99.90;;;13.03;100.00;102134.91;5184716;28;20057;-71
2022/10/11 09:47:30;;;;;;;19.00;6.22;;;12.80;99.90;;;13.17;100.00;102146.94;5185110;28;20045;-73
2022/10/11 09:50:06;;;;;;;22.27;6.43;;;12.90;99.90;;;13.21;100.00;102135.78;5184555;28;20057;-73
2022/10/11 09:52:49;;;;;;;18.95;6.60;;;13.00;99.90;;;13.23;100.00;102142.00;5184844;28;20133;-72
2022/10/11 09:55:37;;;;;;;20.23;7.75;;;13.00;99.90;;;13.29;100.00;102138.75;5184476;28;20074;-72
2022/10/11 09:58:30;;;;;;;24.70;8.02;;;13.10;99.90;;;13.25;100.00;102149.94;5167393;28;20057;-72
2022/10/11 10:01:07;;;;;;;21.25;7.43;;;13.10;99.90;;;13.64;100.00;102145.56;5182606;28;20049;-71
2022/10/11 10:03:43;;;;;;;23.58;7.75;;;13.30;99.90;;;14.00;100.00;102151.47;5352062;22;20051;-58
2022/10/11 10:06:18;;;;;;;26.40;7.90;;;13.60;99.90;;;14.08;100.00;102141.31;5245712;28;20144;-57
2022/10/11 10:08:51;;;;;;;26.27;8.32;;;13.80;99.90;;;13.91;100.00;102156.34;5245086;28;20072;-57
2022/10/11 10:11:23;;;;;;;23.00;7.20;;;13.70;99.90;;;13.84;100.00;102154.31;5245374;28;20057;-57
2022/10/11 10:13:56;;;;;;;17.83;6.80;;;13.60;99.90;;;13.85;100.00;102156.97;5245916;28;20053;-57
2022/10/11 10:16:31;;;;;;;17.83;5.88;;;13.60;99.90;;;13.99;100.00;102148.81;5245569;28;20048;-57
2022/10/11 10:19:07;;;;;;;18.35;6.60;;;13.70;99.90;;;14.18;100.00;102143.50;5245991;28;20040;-57
2022/10/11 10:21:47;;;;;;;18.15;6.13;;;13.80;99.90;;;14.43;100.00;102148.03;5228903;28;20056;-57
2022/10/11 10:24:30;;;;;;;16.58;5.85;;;14.00;99.90;;;14.64;100.00;102145.41;5246747;28;20063;-57
2022/10/11 10:27:15;;;;;;;19.00;6.63;;;14.20;99.90;;;14.74;100.00;102137.06;5247132;28;20036;-57
2022/10/11 10:30:13;;;;;;;18.20;6.00;;;14.30;99.90;;;14.81;100.00;102140.81;5246913;28;20048;-57
2022/10/11 10:32:59;;;;;;;18.55;6.05;;;14.30;99.90;;;14.92;100.00;102145.63;5229009;28;20062;-58
2022/10/11 10:35:43;;;;;;;13.25;5.30;;;14.50;99.90;;;15.03;100.00;102145.16;5247313;28;20041;-57
2022/10/11 10:38:22;;;;;;;13.50;5.35;;;14.60;99.90;;;15.08;100.00;102140.97;5246455;28;20051;-57
2022/10/11 10:40:58;;;;;;;16.40;5.60;;;14.60;99.90;;;15.24;100.00;102142.44;5246526;28;20048;-57
2022/10/11 10:43:35;;;;;;;18.52;5.90;;;14.80;99.90;;;15.32;100.00;102140.97;5246838;28;20124;-58
2022/10/11 10:46:37;;;;;;;16.30;5.93;;;14.90;99.90;;;15.21;100.00;102137.97;5244574;28;20044;-57
2022/10/11 10:49:14;;;;;;;14.95;5.32;;;14.90;99.90;;;15.09;100.00;102137.50;5244560;28;20448;-58